sensor_id;sensor_type;location;lat;lon;timestamp;pressure;altitude;pressure_sealevel;temperature;humidity
73240;BME280;61452;40.054;4.110;2023-09-19T00:02:06;101943.34;;;26.38;100.00
73240;BME280;61452;40.054;4.110;2023-09-19T00:07:08;101946.88;;;26.38;100.00
73240;BME280;61452;40.054;4.110;2023-09-19T00:12:11;101948.59;;;26.39;100.00
73240;BME280;61452;40.054;4.110;2023-09-19T00:17:15;101951.13;;;26.41;100.00
73240;BME280;61452;40.054;4.110;2023-09-19T00:22:18;101942.22;;;26.40;100.00
73240;BME280;61452;40.054;4.110;2023-09-19T00:27:21;101950.09;;;26.42;100.00
73240;BME280;61452;40.054;4.110;2023-09-19T00:32:24;101944.72;;;26.42;100.00
73240;BME280;61452;40.054;4.110;2023-09-19T00:37:26;101959.03;;;26.42;100.00
73240;BME280;61452;40.054;4.110;2023-09-19T00:42:28;101954.50;;;26.43;100.00
73240;BME280;61452;40.054;4.110;2023-09-19T00:47:31;101961.72;;;26.42;100.00
73240;BME280;61452;40.054;4.110;2023-09-19T00:52:35;101955.34;;;26.43;100.00
73240;BME280;61452;40.054;4.110;2023-09-19T00:57:42;101956.50;;;26.41;100.00
73240;BME280;61452;40.054;4.110;2023-09-19T01:02:46;101947.41;;;26.42;100.00
73240;BME280;61452;40.054;4.110;2023-09-19T01:07:49;101952.81;;;26.42;100.00
73240;BME280;61452;40.054;4.110;2023-09-19T01:13:14;101950.97;;;26.42;100.00
73240;BME280;61452;40.054;4.110;2023-09-19T01:29:39;101952.81;;;26.42;100.00
73240;BME280;61452;40.054;4.110;2023-09-19T01:34:45;101938.53;;;26.41;100.00
73240;BME280;61452;40.054;4.110;2023-09-19T01:40:03;101936.66;;;26.42;100.00
73240;BME280;61452;40.054;4.110;2023-09-19T01:45:28;101936.66;;;26.42;100.00
73240;BME280;61452;40.054;4.110;2023-09-19T01:50:43;101936.66;;;26.42;100.00
73240;BME280;61452;40.054;4.110;2023-09-19T01:55:47;101948.44;;;26.41;100.00
73240;BME280;61452;40.054;4.110;2023-09-19T02:00:51;101950.97;;;26.42;100.00
73240;BME280;61452;40.054;4.110;2023-09-19T02:05:55;101951.81;;;26.43;100.00
73240;BME280;61452;40.054;4.110;2023-09-19T02:10:57;101943.75;;;26.43;100.00
73240;BME280;61452;40.054;4.110;2023-09-19T02:15:59;101945.75;;;26.41;100.00
73240;BME280;61452;40.054;4.110;2023-09-19T02:21:02;101943.75;;;26.43;100.00
73240;BME280;61452;40.054;4.110;2023-09-19T02:26:05;101956.34;;;26.42;100.00
73240;BME280;61452;40.054;4.110;2023-09-19T02:31:08;101965.25;;;26.43;100.00
73240;BME280;61452;40.054;4.110;2023-09-19T02:36:10;101956.34;;;26.42;100.00
73240;BME280;61452;40.054;4.110;2023-09-19T02:41:12;101949.13;;;26.43;100.00
73240;BME280;61452;40.054;4.110;2023-09-19T02:46:15;101947.28;;;26.43;100.00
73240;BME280;61452;40.054;4.110;2023-09-19T02:51:19;101949.13;;;26.43;100.00
73240;BME280;61452;40.054;4.110;2023-09-19T02:56:22;101948.28;;;26.42;100.00
73240;BME280;61452;40.054;4.110;2023-09-19T03:01:27;101965.25;;;26.43;100.00
73240;BME280;61452;40.054;4.110;2023-09-19T03:06:30;101958.03;;;26.43;100.00
73240;BME280;61452;40.054;4.110;2023-09-19T03:11:33;101944.59;;;26.43;100.00
73240;BME280;61452;40.054;4.110;2023-09-19T03:16:35;101941.03;;;26.43;100.00
73240;BME280;61452;40.054;4.110;2023-09-19T03:21:39;101937.69;;;26.41;100.00
73240;BME280;61452;40.054;4.110;2023-09-19T03:26:42;101932.13;;;26.42;100.00
73240;BME280;61452;40.054;4.110;2023-09-19T03:31:45;101907.06;;;26.42;100.00
73240;BME280;61452;40.054;4.110;2023-09-19T03:36:48;101902.53;;;26.42;100.00
73240;BME280;61452;40.054;4.110;2023-09-19T03:41:50;101892.78;;;26.41;100.00
73240;BME280;61452;40.054;4.110;2023-09-19T03:46:52;101892.59;;;26.43;100.00
73240;BME280;61452;40.054;4.110;2023-09-19T03:51:55;101884.72;;;26.41;100.00
73240;BME280;61452;40.054;4.110;2023-09-19T03:56:58;101890.09;;;26.41;100.00
73240;BME280;61452;40.054;4.110;2023-09-19T04:02:00;101885.72;;;26.40;100.00
73240;BME280;61452;40.054;4.110;2023-09-19T04:07:02;101864.00;;;26.42;100.00
73240;BME280;61452;40.054;4.110;2023-09-19T04:12:05;101859.66;;;26.41;100.00
73240;BME280;61452;40.054;4.110;2023-09-19T04:17:07;101870.41;;;26.41;100.00
73240;BME280;61452;40.054;4.110;2023-09-19T04:22:12;101877.63;;;26.40;100.00
73240;BME280;61452;40.054;4.110;2023-09-19T04:27:15;101882.84;;;26.42;100.00
73240;BME280;61452;40.054;4.110;2023-09-19T04:32:17;101882.16;;;26.40;100.00
73240;BME280;61452;40.054;4.110;2023-09-19T04:37:20;101885.72;;;26.40;100.00
73240;BME280;61452;40.054;4.110;2023-09-19T04:42:23;101890.38;;;26.38;100.00
73240;BME280;61452;40.054;4.110;2023-09-19T04:47:27;101889.53;;;26.38;100.00
73240;BME280;61452;40.054;4.110;2023-09-19T04:52:30;101896.59;;;26.39;100.00
73240;BME280;61452;40.054;4.110;2023-09-19T04:57:33;101888.53;;;26.39;100.00
73240;BME280;61452;40.054;4.110;2023-09-19T05:02:35;101892.38;;;26.36;100.00
73240;BME280;61452;40.054;4.110;2023-09-19T05:07:41;101894.91;;;26.38;100.00
73240;BME280;61452;40.054;4.110;2023-09-19T05:12:44;101893.91;;;26.39;100.00
73240;BME280;61452;40.054;4.110;2023-09-19T05:17:51;101890.69;;;26.35;100.00
73240;BME280;61452;40.054;4.110;2023-09-19T05:23:05;101883.44;;;26.36;100.00
73240;BME280;61452;40.054;4.110;2023-09-19T05:28:11;101882.63;;;26.35;100.00
73240;BME280;61452;40.054;4.110;2023-09-19T05:33:17;101888.00;;;26.35;100.00
73240;BME280;61452;40.054;4.110;2023-09-19T05:38:20;101888.69;;;26.37;100.00
73240;BME280;61452;40.054;4.110;2023-09-19T05:43:22;101884.28;;;26.36;100.00
73240;BME280;61452;40.054;4.110;2023-09-19T05:48:25;101892.38;;;26.36;100.00
73240;BME280;61452;40.054;4.110;2023-09-19T05:53:27;101905.81;;;26.36;100.00
73240;BME280;61452;40.054;4.110;2023-09-19T05:58:32;101905.28;;;26.33;100.00
73240;BME280;61452;40.054;4.110;2023-09-19T06:03:34;101905.13;;;26.34;100.00
73240;BME280;61452;40.054;4.110;2023-09-19T06:08:37;101919.44;;;26.35;100.00
73240;BME280;61452;40.054;4.110;2023-09-19T06:13:40;101907.84;;;26.34;100.00
73240;BME280;61452;40.054;4.110;2023-09-19T06:18:43;101914.06;;;26.35;100.00
73240;BME280;61452;40.054;4.110;2023-09-19T06:23:45;101926.50;;;26.36;100.00
73240;BME280;61452;40.054;4.110;2023-09-19T06:28:47;101932.91;;;26.35;100.00
73240;BME280;61452;40.054;4.110;2023-09-19T06:33:50;101947.19;;;26.35;100.00
73240;BME280;61452;40.054;4.110;2023-09-19T06:38:52;101952.84;;;26.32;100.00
73240;BME280;61452;40.054;4.110;2023-09-19T06:43:54;101958.94;;;26.34;100.00
73240;BME280;61452;40.054;4.110;2023-09-19T06:48:57;101963.34;;;26.35;100.00
73240;BME280;61452;40.054;4.110;2023-09-19T06:53:59;101953.56;;;26.34;100.00
73240;BME280;61452;40.054;4.110;2023-09-19T06:59:01;101951.72;;;26.35;100.00
73240;BME280;61452;40.054;4.110;2023-09-19T07:04:05;101951.72;;;26.35;100.00
73240;BME280;61452;40.054;4.110;2023-09-19T07:09:07;101975.09;;;26.34;100.00
73240;BME280;61452;40.054;4.110;2023-09-19T07:14:10;101969.84;;;26.33;100.00
73240;BME280;61452;40.054;4.110;2023-09-19T07:19:13;101981.47;;;26.33;100.00
73240;BME280;61452;40.054;4.110;2023-09-19T07:24:17;101984.00;;;26.35;100.00
73240;BME280;61452;40.054;4.110;2023-09-19T07:29:19;101996.44;;;26.36;100.00
73240;BME280;61452;40.054;4.110;2023-09-19T07:34:22;101993.06;;;26.34;100.00
73240;BME280;61452;40.054;4.110;2023-09-19T07:39:26;101995.63;;;26.35;100.00
73240;BME280;61452;40.054;4.110;2023-09-19T07:44:28;102004.69;;;26.34;100.00
73240;BME280;61452;40.054;4.110;2023-09-19T07:49:31;102027.06;;;26.35;100.00
73240;BME280;61452;40.054;4.110;2023-09-19T07:54:33;102045.03;;;26.34;100.00
73240;BME280;61452;40.054;4.110;2023-09-19T07:59:37;102033.28;;;26.35;100.00
73240;BME280;61452;40.054;4.110;2023-09-19T08:04:43;102036.13;;;26.34;100.00
73240;BME280;61452;40.054;4.110;2023-09-19T08:09:48;102037.13;;;26.33;100.00
73240;BME280;61452;40.054;4.110;2023-09-19T08:14:50;102044.19;;;26.34;100.00
73240;BME280;61452;40.054;4.110;2023-09-19T08:19:53;102035.28;;;26.33;100.00
73240;BME280;61452;40.054;4.110;2023-09-19T08:24:55;102031.59;;;26.34;100.00
73240;BME280;61452;40.054;4.110;2023-09-19T08:29:58;102027.22;;;26.33;100.00
73240;BME280;61452;40.054;4.110;2023-09-19T08:35:00;102036.13;;;26.34;100.00
73240;BME280;61452;40.054;4.110;2023-09-19T08:40:03;102041.66;;;26.32;100.00
73240;BME280;61452;40.054;4.110;2023-09-19T08:45:05;102042.50;;;26.33;100.00
73240;BME280;61452;40.054;4.110;2023-09-19T08:50:28;102070.13;;;26.35;100.00
73240;BME280;61452;40.054;4.110;2023-09-19T08:55:31;102068.56;;;26.32;100.00
73240;BME280;61452;40.054;4.110;2023-09-19T09:00:36;102047.03;;;26.32;100.00
73240;BME280;61452;40.054;4.110;2023-09-19T09:05:41;102031.72;;;26.33;100.00
73240;BME280;61452;40.054;4.110;2023-09-19T09:10:45;102044.34;;;26.32;100.00
73240;BME280;61452;40.054;4.110;2023-09-19T09:15:48;102048.72;;;26.33;100.00
73240;BME280;61452;40.054;4.110;2023-09-19T09:20:50;102063.16;;;26.32;100.00
73240;BME280;61452;40.054;4.110;2023-09-19T09:25:53;102063.16;;;26.32;100.00
73240;BME280;61452;40.054;4.110;2023-09-19T09:31:01;102055.94;;;26.33;100.00
73240;BME280;61452;40.054;4.110;2023-09-19T09:36:11;102059.50;;;26.33;100.00
73240;BME280;61452;40.054;4.110;2023-09-19T09:41:16;102067.41;;;26.35;100.00
73240;BME280;61452;40.054;4.110;2023-09-19T09:46:29;102067.41;;;26.35;100.00
73240;BME280;61452;40.054;4.110;2023-09-19T09:52:05;102068.41;;;26.34;100.00
73240;BME280;61452;40.054;4.110;2023-09-19T09:57:12;102070.25;;;26.33;100.00
73240;BME280;61452;40.054;4.110;2023-09-19T10:02:30;102072.81;;;26.35;100.00
73240;BME280;61452;40.054;4.110;2023-09-19T10:07:39;102081.88;;;26.34;100.00
73240;BME280;61452;40.054;4.110;2023-09-19T10:12:47;102083.56;;;26.35;100.00
73240;BME280;61452;40.054;4.110;2023-09-19T10:17:51;102091.63;;;26.35;100.00
73240;BME280;61452;40.054;4.110;2023-09-19T10:22:57;102085.53;;;26.33;100.00
73240;BME280;61452;40.054;4.110;2023-09-19T10:28:01;102096.16;;;26.34;100.00
73240;BME280;61452;40.054;4.110;2023-09-19T10:33:12;102089.94;;;26.34;100.00
73240;BME280;61452;40.054;4.110;2023-09-19T10:38:18;102080.16;;;26.33;100.00
73240;BME280;61452;40.054;4.110;2023-09-19T10:43:26;102096.16;;;26.34;100.00
73240;BME280;61452;40.054;4.110;2023-09-19T10:48:37;102116.00;;;26.33;100.00
73240;BME280;61452;40.054;4.110;2023-09-19T10:53:50;102133.84;;;26.34;100.00
73240;BME280;61452;40.054;4.110;2023-09-19T10:59:14;102137.53;;;26.33;100.00
73240;BME280;61452;40.054;4.110;2023-09-19T11:09:52;102154.50;;;26.34;100.00
73240;BME280;61452;40.054;4.110;2023-09-19T11:15:00;102150.97;;;26.33;100.00
73240;BME280;61452;40.054;4.110;2023-09-19T11:30:35;102147.44;;;26.33;100.00
73240;BME280;61452;40.054;4.110;2023-09-19T11:36:07;102140.22;;;26.33;100.00
73240;BME280;61452;40.054;4.110;2023-09-19T11:46:23;102127.75;;;26.32;100.00
73240;BME280;61452;40.054;4.110;2023-09-19T11:51:26;102128.59;;;26.33;100.00
73240;BME280;61452;40.054;4.110;2023-09-19T11:56:29;102132.28;;;26.32;100.00
73240;BME280;61452;40.054;4.110;2023-09-19T12:01:33;102123.34;;;26.31;100.00
73240;BME280;61452;40.054;4.110;2023-09-19T12:06:37;102116.13;;;26.32;100.00
73240;BME280;61452;40.054;4.110;2023-09-19T12:11:44;102110.63;;;26.33;100.00
73240;BME280;61452;40.054;4.110;2023-09-19T12:16:57;102097.16;;;26.33;100.00
73240;BME280;61452;40.054;4.110;2023-09-19T12:22:02;102089.09;;;26.33;100.00
73240;BME280;61452;40.054;4.110;2023-09-19T12:27:08;102083.72;;;26.33;100.00
73240;BME280;61452;40.054;4.110;2023-09-19T12:32:12;102065.84;;;26.32;100.00
73240;BME280;61452;40.054;4.110;2023-09-19T12:37:15;102044.34;;;26.32;100.00
73240;BME280;61452;40.054;4.110;2023-09-19T12:42:24;102021.81;;;26.33;100.00
73240;BME280;61452;40.054;4.110;2023-09-19T12:47:30;102011.06;;;26.33;100.00
73240;BME280;61452;40.054;4.110;2023-09-19T12:52:37;102029.03;;;26.33;100.00
73240;BME280;61452;40.054;4.110;2023-09-19T12:57:40;102020.97;;;26.33;100.00
73240;BME280;61452;40.054;4.110;2023-09-19T13:03:14;102004.84;;;26.33;100.00
73240;BME280;61452;40.054;4.110;2023-09-19T13:09:07;102003.00;;;26.33;100.00
73240;BME280;61452;40.054;4.110;2023-09-19T13:14:15;101992.22;;;26.33;100.00
73240;BME280;61452;40.054;4.110;2023-09-19T13:19:37;101997.59;;;26.33;100.00
73240;BME280;61452;40.054;4.110;2023-09-19T13:24:42;102003.84;;;26.34;100.00
73240;BME280;61452;40.054;4.110;2023-09-19T13:29:44;101990.66;;;26.31;100.00
73240;BME280;61452;40.054;4.110;2023-09-19T13:34:47;101977.94;;;26.33;100.00
73240;BME280;61452;40.054;4.110;2023-09-19T13:39:49;101943.78;;;26.33;100.00
73240;BME280;61452;40.054;4.110;2023-09-19T13:44:51;101915.19;;;26.32;100.00
73240;BME280;61452;40.054;4.110;2023-09-19T13:49:55;101913.34;;;26.33;100.00
73240;BME280;61452;40.054;4.110;2023-09-19T13:54:57;101899.91;;;26.33;100.00
73240;BME280;61452;40.054;4.110;2023-09-19T14:00:00;101903.59;;;26.32;100.00
73240;BME280;61452;40.054;4.110;2023-09-19T14:05:12;101904.44;;;26.32;100.00
73240;BME280;61452;40.054;4.110;2023-09-19T14:10:16;101888.28;;;26.32;100.00
73240;BME280;61452;40.054;4.110;2023-09-19T14:15:19;101867.63;;;26.33;100.00
73240;BME280;61452;40.054;4.110;2023-09-19T14:20:21;101877.53;;;26.32;100.00
73240;BME280;61452;40.054;4.110;2023-09-19T14:25:24;101890.84;;;26.34;100.00
73240;BME280;61452;40.054;4.110;2023-09-19T14:30:27;101882.78;;;26.34;100.00
73240;BME280;61452;40.054;4.110;2023-09-19T14:35:29;101891.69;;;26.34;100.00
73240;BME280;61452;40.054;4.110;2023-09-19T14:40:32;101902.59;;;26.33;100.00
73240;BME280;61452;40.054;4.110;2023-09-19T14:45:35;101914.19;;;26.33;100.00
73240;BME280;61452;40.054;4.110;2023-09-19T14:50:38;101920.56;;;26.32;100.00
73240;BME280;61452;40.054;4.110;2023-09-19T14:55:40;101940.41;;;26.31;100.00
73240;BME280;61452;40.054;4.110;2023-09-19T15:00:46;101953.72;;;26.33;100.00
73240;BME280;61452;40.054;4.110;2023-09-19T15:05:49;101934.16;;;26.31;100.00
73240;BME280;61452;40.054;4.110;2023-09-19T15:10:51;101938.03;;;26.28;100.00
73240;BME280;61452;40.054;4.110;2023-09-19T15:15:59;101954.84;;;26.30;100.00
73240;BME280;61452;40.054;4.110;2023-09-19T15:21:04;101961.06;;;26.31;100.00
73240;BME280;61452;40.054;4.110;2023-09-19T15:26:09;101964.91;;;26.28;100.00
73240;BME280;61452;40.054;4.110;2023-09-19T15:31:14;101941.56;;;26.29;100.00
73240;BME280;61452;40.054;4.110;2023-09-19T15:36:16;101938.03;;;26.28;100.00
73240;BME280;61452;40.054;4.110;2023-09-19T15:41:20;101938.03;;;26.28;100.00
73240;BME280;61452;40.054;4.110;2023-09-19T15:46:25;101938.16;;;26.27;100.00
73240;BME280;61452;40.054;4.110;2023-09-19T15:51:31;101933.63;;;26.27;100.00
73240;BME280;61452;40.054;4.110;2023-09-19T15:56:33;101945.38;;;26.26;100.00
73240;BME280;61452;40.054;4.110;2023-09-19T16:01:40;101939.00;;;26.27;100.00
73240;BME280;61452;40.054;4.110;2023-09-19T16:06:45;101943.53;;;26.27;100.00
73240;BME280;61452;40.054;4.110;2023-09-19T16:11:48;101953.44;;;26.26;100.00
73240;BME280;61452;40.054;4.110;2023-09-19T16:16:50;101966.06;;;26.26;100.00
73240;BME280;61452;40.054;4.110;2023-09-19T16:21:53;101985.03;;;26.24;100.00
73240;BME280;61452;40.054;4.110;2023-09-19T16:26:55;101970.72;;;26.24;100.00
73240;BME280;61452;40.054;4.110;2023-09-19T16:31:58;101976.94;;;26.24;100.00
73240;BME280;61452;40.054;4.110;2023-09-19T16:37:00;101937.56;;;26.23;100.00
73240;BME280;61452;40.054;4.110;2023-09-19T16:42:04;101948.22;;;26.25;100.00
73240;BME280;61452;40.054;4.110;2023-09-19T16:47:23;101942.13;;;26.23;100.00
73240;BME280;61452;40.054;4.110;2023-09-19T16:52:26;101953.69;;;26.23;100.00
73240;BME280;61452;40.054;4.110;2023-09-19T16:57:28;101948.63;;;26.20;100.00
73240;BME280;61452;40.054;4.110;2023-09-19T17:02:30;101960.38;;;26.19;100.00
73240;BME280;61452;40.054;4.110;2023-09-19T17:07:33;101957.69;;;26.19;100.00
73240;BME280;61452;40.054;4.110;2023-09-19T17:12:35;101969.44;;;26.18;100.00
73240;BME280;61452;40.054;4.110;2023-09-19T17:17:38;101958.00;;;26.16;100.00
73240;BME280;61452;40.054;4.110;2023-09-19T17:22:40;101974.81;;;26.18;100.00
73240;BME280;61452;40.054;4.110;2023-09-19T17:27:43;101979.34;;;26.17;100.00
73240;BME280;61452;40.054;4.110;2023-09-19T17:32:45;101963.53;;;26.14;100.00
73240;BME280;61452;40.054;4.110;2023-09-19T17:37:47;101964.38;;;26.15;100.00
73240;BME280;61452;40.054;4.110;2023-09-19T17:42:50;101951.78;;;26.15;100.00
73240;BME280;61452;40.054;4.110;2023-09-19T17:47:52;101959.66;;;26.17;100.00
73240;BME280;61452;40.054;4.110;2023-09-19T17:52:56;101953.59;;;26.15;100.00
73240;BME280;61452;40.054;4.110;2023-09-19T17:57:58;101970.59;;;26.15;100.00
73240;BME280;61452;40.054;4.110;2023-09-19T18:03:03;101964.50;;;26.13;100.00
73240;BME280;61452;40.054;4.110;2023-09-19T18:08:06;101956.44;;;26.13;100.00
73240;BME280;61452;40.054;4.110;2023-09-19T18:13:08;101939.44;;;26.13;100.00
73240;BME280;61452;40.054;4.110;2023-09-19T18:18:12;101937.75;;;26.12;100.00
73240;BME280;61452;40.054;4.110;2023-09-19T18:23:15;101952.06;;;26.12;100.00
73240;BME280;61452;40.054;4.110;2023-09-19T18:28:17;101959.25;;;26.12;100.00
73240;BME280;61452;40.054;4.110;2023-09-19T18:33:20;101951.19;;;26.12;100.00
73240;BME280;61452;40.054;4.110;2023-09-19T18:38:22;101979.09;;;26.11;100.00
73240;BME280;61452;40.054;4.110;2023-09-19T18:43:27;101979.09;;;26.11;100.00
73240;BME280;61452;40.054;4.110;2023-09-19T18:48:29;101985.31;;;26.11;100.00
73240;BME280;61452;40.054;4.110;2023-09-19T18:53:32;101978.25;;;26.10;100.00
73240;BME280;61452;40.054;4.110;2023-09-19T18:58:35;101953.22;;;26.10;100.00
73240;BME280;61452;40.054;4.110;2023-09-19T19:03:39;101980.97;;;26.10;100.00
73240;BME280;61452;40.054;4.110;2023-09-19T19:08:44;101959.56;;;26.09;100.00
73240;BME280;61452;40.054;4.110;2023-09-19T19:13:48;101956.88;;;26.09;100.00
73240;BME280;61452;40.054;4.110;2023-09-19T19:18:53;101942.59;;;26.08;100.00
73240;BME280;61452;40.054;4.110;2023-09-19T19:23:56;101924.75;;;26.07;100.00
73240;BME280;61452;40.054;4.110;2023-09-19T19:28:58;101913.72;;;26.10;100.00
73240;BME280;61452;40.054;4.110;2023-09-19T19:34:00;101915.84;;;26.07;100.00
73240;BME280;61452;40.054;4.110;2023-09-19T19:39:03;101917.53;;;26.08;100.00
73240;BME280;61452;40.054;4.110;2023-09-19T19:44:07;101919.38;;;26.07;100.00
73240;BME280;61452;40.054;4.110;2023-09-19T19:49:10;101917.53;;;26.08;100.00
73240;BME280;61452;40.054;4.110;2023-09-19T19:54:13;101914.00;;;26.07;100.00
73240;BME280;61452;40.054;4.110;2023-09-19T19:59:15;101909.47;;;26.08;100.00
73240;BME280;61452;40.054;4.110;2023-09-19T20:04:20;101908.63;;;26.07;100.00
73240;BME280;61452;40.054;4.110;2023-09-19T20:09:22;101924.91;;;26.06;100.00
73240;BME280;61452;40.054;4.110;2023-09-19T20:14:24;101936.50;;;26.06;100.00
73240;BME280;61452;40.054;4.110;2023-09-19T20:19:27;101956.31;;;26.05;100.00
73240;BME280;61452;40.054;4.110;2023-09-19T20:24:35;101969.75;;;26.05;100.00
73240;BME280;61452;40.054;4.110;2023-09-19T20:29:39;101978.84;;;26.04;100.00
73240;BME280;61452;40.054;4.110;2023-09-19T20:34:42;101985.03;;;26.05;100.00
73240;BME280;61452;40.054;4.110;2023-09-19T20:39:44;101991.28;;;26.05;100.00
73240;BME280;61452;40.054;4.110;2023-09-19T20:44:46;101986.91;;;26.04;100.00
73240;BME280;61452;40.054;4.110;2023-09-19T20:49:49;101985.22;;;26.03;100.00
73240;BME280;61452;40.054;4.110;2023-09-19T20:54:51;101997.81;;;26.03;100.00
73240;BME280;61452;40.054;4.110;2023-09-19T20:59:53;101985.22;;;26.03;100.00
73240;BME280;61452;40.054;4.110;2023-09-19T21:04:55;101958.31;;;26.03;100.00
73240;BME280;61452;40.054;4.110;2023-09-19T21:09:59;101943.19;;;26.02;100.00
73240;BME280;61452;40.054;4.110;2023-09-19T21:15:03;101936.81;;;26.03;100.00
73240;BME280;61452;40.054;4.110;2023-09-19T21:20:07;101914.44;;;26.03;100.00
73240;BME280;61452;40.054;4.110;2023-09-19T21:25:10;101911.75;;;26.03;100.00
73240;BME280;61452;40.054;4.110;2023-09-19T21:30:13;101908.34;;;26.01;100.00
73240;BME280;61452;40.054;4.110;2023-09-19T21:35:16;101902.13;;;26.00;100.00
73240;BME280;61452;40.054;4.110;2023-09-19T21:40:19;101908.34;;;26.01;100.00
73240;BME280;61452;40.054;4.110;2023-09-19T21:45:22;101886.72;;;26.02;100.00
73240;BME280;61452;40.054;4.110;2023-09-19T21:50:24;101880.63;;;26.00;100.00
73240;BME280;61452;40.054;4.110;2023-09-19T21:55:27;101873.41;;;26.01;100.00
73240;BME280;61452;40.054;4.110;2023-09-19T22:00:30;101881.47;;;26.01;100.00
73240;BME280;61452;40.054;4.110;2023-09-19T22:05:45;101884.16;;;26.01;100.00
73240;BME280;61452;40.054;4.110;2023-09-19T22:10:48;101859.94;;;26.01;100.00
73240;BME280;61452;40.054;4.110;2023-09-19T22:15:55;101870.00;;;25.99;100.00
73240;BME280;61452;40.054;4.110;2023-09-19T22:20:58;101887.84;;;26.00;100.00
73240;BME280;61452;40.054;4.110;2023-09-19T22:26:16;101876.41;;;25.98;100.00
73240;BME280;61452;40.054;4.110;2023-09-19T22:31:27;101871.88;;;25.98;100.00
73240;BME280;61452;40.054;4.110;2023-09-19T22:36:35;101865.66;;;25.98;100.00
73240;BME280;61452;40.054;4.110;2023-09-19T22:41:50;101867.31;;;25.99;100.00
73240;BME280;61452;40.054;4.110;2023-09-19T22:46:56;101861.41;;;25.95;100.00
73240;BME280;61452;40.054;4.110;2023-09-19T22:51:59;101848.66;;;25.97;100.00
73240;BME280;61452;40.054;4.110;2023-09-19T22:57:01;101842.44;;;25.97;100.00
73240;BME280;61452;40.054;4.110;2023-09-19T23:02:04;101830.84;;;25.96;100.00
73240;BME280;61452;40.054;4.110;2023-09-19T23:07:07;101823.63;;;25.97;100.00
73240;BME280;61452;40.054;4.110;2023-09-19T23:12:13;101838.03;;;25.96;100.00
73240;BME280;61452;40.054;4.110;2023-09-19T23:17:21;101838.03;;;25.96;100.00
73240;BME280;61452;40.054;4.110;2023-09-19T23:22:24;101833.53;;;25.96;100.00
73240;BME280;61452;40.054;4.110;2023-09-19T23:27:30;101823.63;;;25.97;100.00
73240;BME280;61452;40.054;4.110;2023-09-19T23:32:37;101810.31;;;25.95;100.00
73240;BME280;61452;40.054;4.110;2023-09-19T23:37:40;101801.41;;;25.95;100.00
73240;BME280;61452;40.054;4.110;2023-09-19T23:42:42;101789.94;;;25.93;100.00
73240;BME280;61452;40.054;4.110;2023-09-19T23:47:47;101791.50;;;25.95;100.00
73240;BME280;61452;40.054;4.110;2023-09-19T23:52:49;101781.72;;;25.94;100.00
73240;BME280;61452;40.054;4.110;2023-09-19T23:57:52;101755.81;;;25.93;100.00
